Time;durP1;ratioP1;P1;durP2;ratioP2;P2;SDS_P1;SDS_P2;PMS_P1;PMS_P2;Temp;Humidity;BMP_temperature;BMP_pressure;BME280_temperature;BME280_humidity;BME280_pressure;Samples;Min_cycle;Max_cycle;Signal;HPM_P1;HPM_P2
2022/05/28 00:00:59;;;;;;;9.77;2.80;;;;;;;12.07;68.40;99026.69;5009374;28;20026;-76
2022/05/28 00:03:26;;;;;;;9.68;2.33;;;;;;;12.09;68.75;99024.56;5009546;28;20394;-78
2022/05/28 00:05:52;;;;;;;8.93;1.95;;;;;;;12.06;67.99;99028.53;5006329;28;20584;-77
2022/05/28 00:08:17;;;;;;;11.63;3.15;;;;;;;11.77;67.10;99027.22;5006248;28;20034;-76
2022/05/28 00:10:44;;;;;;;7.82;2.20;;;;;;;11.89;67.90;99015.28;5007335;28;20029;-76
2022/05/28 00:13:09;;;;;;;14.35;2.72;;;;;;;11.89;68.32;99020.66;4990215;28;20440;-77
2022/05/28 00:15:35;;;;;;;9.45;2.17;;;;;;;11.96;68.05;99002.53;5008048;28;20030;-77
2022/05/28 00:18:01;;;;;;;6.80;3.58;;;;;;;12.06;67.78;99003.69;5009452;28;20030;-77
2022/05/28 00:20:27;;;;;;;11.40;2.42;;;;;;;11.69;68.55;99001.72;5008679;28;20034;-77
2022/05/28 00:22:52;;;;;;;13.88;2.75;;;;;;;11.85;68.04;99002.69;5007272;28;20053;-76
2022/05/28 00:25:18;;;;;;;10.68;3.22;;;;;;;12.00;66.15;99010.84;5004870;28;20030;-76
2022/05/28 00:27:44;;;;;;;10.48;1.92;;;;;;;11.95;68.53;99008.94;5010082;28;20096;-77
2022/05/28 00:30:12;;;;;;;13.10;2.72;;;;;;;12.08;67.22;99006.91;5003503;28;20026;-77
2022/05/28 00:32:38;;;;;;;7.43;3.28;;;;;;;12.01;67.96;98975.81;5009105;28;20030;-77
2022/05/28 00:35:05;;;;;;;13.85;3.90;;;;;;;11.97;67.23;98990.75;5008185;28;20076;-77
2022/05/28 00:37:31;;;;;;;12.05;3.13;;;;;;;12.11;68.19;98987.66;5007007;28;20073;-77
2022/05/28 00:39:56;;;;;;;10.45;2.47;;;;;;;12.08;68.36;98991.66;5006428;28;20061;-77
2022/05/28 00:42:21;;;;;;;8.07;2.55;;;;;;;12.02;68.06;98987.31;5008747;28;20041;-77
2022/05/28 00:44:47;;;;;;;6.90;2.50;;;;;;;12.29;67.54;98982.75;5007059;28;20041;-76
2022/05/28 00:47:13;;;;;;;12.38;3.20;;;;;;;12.10;67.92;98994.09;5008630;28;20026;-77
2022/05/28 00:49:38;;;;;;;9.35;2.58;;;;;;;11.90;68.36;98987.47;5004942;28;20037;-77
2022/05/28 00:52:07;;;;;;;12.43;2.67;;;;;;;12.01;67.43;98975.81;5009242;28;20045;-77
2022/05/28 00:54:42;;;;;;;7.30;2.20;;;;;;;12.08;67.84;98985.50;5009313;28;20034;-76
2022/05/28 00:57:09;;;;;;;10.27;2.85;;;;;;;12.11;67.50;98971.59;5005576;28;20028;-76
2022/05/28 00:59:34;;;;;;;8.20;2.05;;;;;;;11.91;67.73;98972.22;5002172;28;20050;-77
2022/05/28 01:02:17;;;;;;;5.82;2.25;;;;;;;11.95;68.00;98974.16;5006323;28;20391;-77
2022/05/28 01:04:55;;;;;;;10.15;2.38;;;;;;;11.68;68.20;98951.97;5001809;28;20396;-77
2022/05/28 01:07:36;;;;;;;12.27;2.63;;;;;;;12.00;68.14;98968.84;5007909;28;20026;-77
2022/05/28 01:10:13;;;;;;;5.43;2.53;;;;;;;11.80;67.81;98951.81;5006037;28;20105;-77
2022/05/28 01:12:57;;;;;;;7.80;2.58;;;;;;;11.83;67.76;98967.34;5005265;28;20418;-77
2022/05/28 01:15:32;;;;;;;10.98;2.70;;;;;;;11.83;68.58;98964.69;5005969;28;20036;-77
2022/05/28 01:18:06;;;;;;;6.57;1.33;;;;;;;11.80;68.52;98951.81;5004225;28;20033;-77
2022/05/28 01:20:37;;;;;;;14.38;2.22;;;;;;;11.95;68.46;98944.72;5008086;28;20120;-77
2022/05/28 01:23:31;;;;;;;8.10;2.00;;;;;;;11.89;68.83;98956.44;5002521;28;20033;-77
2022/05/28 01:26:07;;;;;;;9.95;2.00;;;;;;;11.75;68.42;98947.22;5017818;28;20026;-77
2022/05/28 01:28:37;;;;;;;10.07;2.73;;;;;;;11.69;69.00;98956.25;5004376;28;20095;-78
2022/05/28 01:31:05;;;;;;;7.50;2.83;;;;;;;11.65;69.24;98922.22;5006326;28;20333;-77
2022/05/28 01:33:33;;;;;;;17.27;3.13;;;;;;;11.81;67.98;98961.47;5006491;28;20036;-77
2022/05/28 01:35:59;;;;;;;8.55;2.53;;;;;;;11.68;68.61;98938.63;5006875;28;20121;-77
2022/05/28 01:38:25;;;;;;;6.95;1.75;;;;;;;11.72;68.58;98920.19;5006336;28;20489;-76
2022/05/28 01:40:52;;;;;;;7.25;2.13;;;;;;;11.68;69.06;98953.84;5007931;28;20033;-77
2022/05/28 01:43:19;;;;;;;13.57;3.38;;;;;;;11.85;69.13;98949.19;5004047;28;20430;-77
2022/05/28 01:45:47;;;;;;;10.98;2.70;;;;;;;11.78;68.57;98930.69;5006179;28;20397;-76
2022/05/28 01:48:14;;;;;;;7.57;2.42;;;;;;;11.92;68.56;98944.44;5005089;28;20450;-76
2022/05/28 01:50:45;;;;;;;12.70;2.38;;;;;;;11.98;68.53;98933.53;5008896;28;20044;-77
2022/05/28 01:56:05;;;;;;;5.30;2.28;;;;;;;11.99;69.17;98920.97;5003981;28;20057;-77
2022/05/28 01:58:31;;;;;;;9.43;3.20;;;;;;;12.00;68.74;98920.69;5004920;28;20125;-77
2022/05/28 02:00:58;;;;;;;15.75;3.45;;;;;;;11.90;68.89;98915.25;5006120;28;20029;-77
2022/05/28 02:03:25;;;;;;;10.80;3.22;;;;;;;11.76;68.31;98900.72;5005322;28;20029;-77
2022/05/28 02:05:51;;;;;;;12.80;3.13;;;;;;;11.99;68.75;98904.91;5008862;28;20030;-76
2022/05/28 02:08:16;;;;;;;8.80;2.50;;;;;;;11.85;68.54;98911.75;5004666;28;20095;-77
2022/05/28 02:10:46;;;;;;;9.98;2.45;;;;;;;11.83;69.16;98913.88;4988484;28;20104;-77
2022/05/28 02:13:21;;;;;;;8.02;2.22;;;;;;;11.94;68.79;98910.22;5006024;28;20018;-77
2022/05/28 02:15:57;;;;;;;8.27;2.43;;;;;;;11.99;68.58;98918.28;5008241;28;20034;-77
2022/05/28 02:18:36;;;;;;;11.05;2.42;;;;;;;11.90;68.44;98909.13;5020849;28;20473;-76
2022/05/28 02:21:18;;;;;;;10.85;2.85;;;;;;;11.93;69.19;98917.44;5007833;28;20036;-78
2022/05/28 02:23:56;;;;;;;11.50;2.78;;;;;;;11.85;67.75;98903.72;5005270;28;20508;-77
2022/05/28 02:26:43;;;;;;;12.02;2.67;;;;;;;11.94;69.27;98907.53;5005834;28;20489;-77
2022/05/28 02:29:10;;;;;;;10.93;3.08;;;;;;;11.71;68.70;98922.03;5004551;28;20474;-78
2022/05/28 02:31:36;;;;;;;12.20;3.08;;;;;;;11.78;69.30;98922.66;5008132;28;20517;-77
2022/05/28 02:34:03;;;;;;;11.13;2.40;;;;;;;11.81;68.72;98914.13;5010209;28;20040;-77
2022/05/28 02:36:29;;;;;;;11.52;2.97;;;;;;;11.55;69.37;98900.75;5005297;28;20042;-77
2022/05/28 02:38:54;;;;;;;11.38;3.20;;;;;;;11.71;69.10;98900.66;4987235;28;20037;-76
2022/05/28 02:41:21;;;;;;;6.65;2.47;;;;;;;11.63;69.64;98902.97;5002640;28;20386;-77
2022/05/28 02:43:46;;;;;;;13.85;2.70;;;;;;;11.48;69.86;98900.97;5001334;28;20072;-77
2022/05/28 02:46:12;;;;;;;11.02;2.97;;;;;;;11.66;69.85;98913.97;4988567;28;20065;-77
2022/05/28 02:48:39;;;;;;;7.68;2.78;;;;;;;11.71;70.34;98916.69;5005151;28;20096;-77
2022/05/28 02:51:13;;;;;;;14.77;2.80;;;;;;;11.48;69.59;98898.28;5007181;28;20114;-77
2022/05/28 02:53:38;;;;;;;10.65;3.33;;;;;;;11.66;69.87;98911.28;5005293;28;20049;-77
2022/05/28 02:56:05;;;;;;;10.80;3.80;;;;;;;11.77;68.62;98906.88;5007642;28;20469;-77
2022/05/28 02:58:30;;;;;;;13.10;3.40;;;;;;;11.78;69.47;98895.91;5004899;28;20034;-77
2022/05/28 03:00:56;;;;;;;10.75;3.63;;;;;;;11.76;69.96;98895.34;5004856;28;20044;-77
2022/05/28 03:03:21;;;;;;;15.30;2.92;;;;;;;11.73;69.05;98906.56;5002815;28;20120;-77
2022/05/28 03:05:48;;;;;;;11.95;3.40;;;;;;;11.84;69.56;98916.28;5007670;28;20017;-77
2022/05/28 03:08:13;;;;;;;18.40;4.03;;;;;;;11.71;69.38;98911.34;5007456;28;20428;-77
2022/05/28 03:10:39;;;;;;;11.15;3.35;;;;;;;11.64;69.83;98908.03;5007199;28;20026;-76
2022/05/28 03:13:06;;;;;;;6.70;3.08;;;;;;;11.56;70.12;98924.53;5004598;28;20080;-77
2022/05/28 03:15:31;;;;;;;8.40;2.90;;;;;;;11.53;70.10;98884.94;5007079;28;20033;-77
2022/05/28 03:17:59;;;;;;;10.02;3.00;;;;;;;11.67;70.40;98910.25;5005432;28;20052;-77
2022/05/28 03:20:25;;;;;;;9.60;3.38;;;;;;;11.64;69.89;98908.03;4989341;28;20049;-78
2022/05/28 03:22:50;;;;;;;9.48;3.10;;;;;;;11.70;69.59;98911.63;5005960;28;20045;-77
2022/05/28 03:25:16;;;;;;;11.88;2.83;;;;;;;11.64;69.56;98920.63;5005748;28;20470;-77
2022/05/28 03:27:41;;;;;;;7.93;2.70;;;;;;;11.80;69.85;98922.38;5007761;28;20033;-77
2022/05/28 03:30:07;;;;;;;6.28;2.88;;;;;;;11.53;70.60;98902.88;5008211;28;20057;-77
2022/05/28 03:32:32;;;;;;;7.50;3.55;;;;;;;11.78;69.94;98917.31;5016617;28;20046;-76
2022/05/28 03:34:58;;;;;;;12.57;3.17;;;;;;;11.68;70.37;98919.91;5009830;28;20030;-77
2022/05/28 03:37:23;;;;;;;10.20;3.13;;;;;;;11.72;70.01;98917.50;5003790;28;20034;-77
2022/05/28 03:39:48;;;;;;;9.70;2.78;;;;;;;11.50;70.18;98898.84;5002776;28;20140;-77
2022/05/28 03:42:13;;;;;;;14.00;3.58;;;;;;;11.43;70.42;98924.13;5003626;28;20033;-77
2022/05/28 03:44:39;;;;;;;7.45;3.33;;;;;;;11.72;70.51;98921.00;5006568;28;20087;-77
2022/05/28 03:47:05;;;;;;;10.15;2.97;;;;;;;11.34;70.39;98915.75;5004338;28;20036;-77
2022/05/28 03:49:34;;;;;;;8.52;3.20;;;;;;;11.78;71.25;98928.00;5005559;28;20045;-77
2022/05/28 03:52:01;;;;;;;12.30;2.97;;;;;;;11.68;70.12;98922.56;5008714;28;20156;-77
2022/05/28 03:54:27;;;;;;;14.27;3.03;;;;;;;11.70;70.95;98915.09;5004852;28;20125;-77
2022/05/28 03:56:57;;;;;;;7.65;2.92;;;;;;;11.57;70.92;98925.34;4992479;28;20128;-78
2022/05/28 03:59:22;;;;;;;10.10;2.97;;;;;;;11.63;71.64;98922.47;5022090;28;20532;-77
2022/05/28 04:01:47;;;;;;;10.57;2.72;;;;;;;11.62;70.89;98917.41;5008808;28;20034;-77
2022/05/28 04:04:13;;;;;;;5.93;2.65;;;;;;;11.66;70.42;98922.00;5005970;28;20026;-77
2022/05/28 04:06:38;;;;;;;15.63;4.57;;;;;;;11.58;70.97;98935.78;5005873;28;20029;-76
2022/05/28 04:09:05;;;;;;;10.65;2.90;;;;;;;11.67;69.60;98917.47;5004235;28;20030;-77
2022/05/28 04:11:31;;;;;;;16.52;4.65;;;;;;;11.46;69.75;98929.81;5008902;28;20041;-77
2022/05/28 04:13:56;;;;;;;9.93;3.10;;;;;;;11.52;70.64;98936.81;5008740;28;20036;-77
2022/05/28 04:16:22;;;;;;;7.70;2.58;;;;;;;11.48;70.85;98945.56;4990956;28;20037;-76
2022/05/28 04:18:47;;;;;;;6.80;2.60;;;;;;;11.42;70.81;98934.03;5011926;28;20068;-77
2022/05/28 04:21:13;;;;;;;11.30;3.35;;;;;;;11.55;70.37;98957.69;5007989;28;20401;-76
2022/05/28 04:23:38;;;;;;;8.50;2.40;;;;;;;11.44;70.84;98955.16;5006924;28;20490;-77
2022/05/28 04:26:04;;;;;;;8.02;2.85;;;;;;;11.45;70.26;98952.22;5003385;28;20108;-77
2022/05/28 04:28:29;;;;;;;7.85;2.35;;;;;;;11.52;68.56;98944.81;5001867;28;21065;-77
2022/05/28 04:30:54;;;;;;;8.80;2.67;;;;;;;11.37;70.96;98942.00;5006657;28;20030;-77
2022/05/28 04:33:20;;;;;;;13.98;3.10;;;;;;;11.52;70.94;98949.34;4987970;28;20030;-76
2022/05/28 04:35:45;;;;;;;5.53;2.83;;;;;;;11.20;69.61;98954.63;5003921;28;20079;-76
2022/05/28 04:38:11;;;;;;;11.88;2.92;;;;;;;11.46;69.58;98935.16;5005148;28;20520;-77
2022/05/28 04:40:36;;;;;;;8.10;2.95;;;;;;;11.23;70.71;98943.44;5006701;28;20045;-77
2022/05/28 04:43:02;;;;;;;6.72;2.17;;;;;;;11.44;70.25;98953.31;5008311;28;20076;-77
2022/05/28 04:45:27;;;;;;;7.07;2.17;;;;;;;11.33;70.16;98959.59;5008742;28;20042;-77
2022/05/28 04:47:52;;;;;;;7.68;2.55;;;;;;;11.46;70.42;98959.22;5009084;28;20232;-77
2022/05/28 04:50:18;;;;;;;8.55;3.47;;;;;;;11.52;69.78;98966.22;5007002;28;20029;-77
2022/05/28 04:52:43;;;;;;;8.65;2.40;;;;;;;11.60;69.73;98956.94;5006658;28;20030;-77
2022/05/28 04:55:10;;;;;;;12.85;2.75;;;;;;;11.43;69.83;98940.16;5009284;28;20037;-76
2022/05/28 04:57:36;;;;;;;6.30;2.67;;;;;;;11.60;70.32;98935.56;4990041;28;20038;-77
2022/05/28 05:00:05;;;;;;;8.32;2.55;;;;;;;11.68;69.83;98956.50;5009274;28;20030;-77
2022/05/28 05:02:30;;;;;;;8.07;4.55;;;;;;;11.69;70.47;98934.88;5005146;28;20029;-76
2022/05/28 05:04:57;;;;;;;8.63;3.58;;;;;;;11.89;69.55;98963.66;5014010;28;20080;-77
2022/05/28 05:07:23;;;;;;;6.20;2.10;;;;;;;11.48;68.73;98933.03;5006833;28;20065;-77
2022/05/28 05:09:48;;;;;;;7.32;2.58;;;;;;;11.77;69.52;98963.81;5005171;28;20033;-76
2022/05/28 05:12:13;;;;;;;6.10;1.98;;;;;;;11.52;69.90;98963.53;5006454;28;20059;-77
2022/05/28 05:14:39;;;;;;;6.35;2.35;;;;;;;11.59;69.21;98955.31;5007164;28;20390;-77
2022/05/28 05:17:04;;;;;;;8.52;2.63;;;;;;;11.63;69.28;98969.78;5006828;28;20030;-76
2022/05/28 05:19:29;;;;;;;4.93;2.00;;;;;;;11.44;69.71;98960.50;5008948;28;20038;-77
2022/05/28 05:21:55;;;;;;;9.18;3.60;;;;;;;11.18;70.08;98978.13;5009139;28;20053;-77
2022/05/28 05:24:22;;;;;;;7.20;2.80;;;;;;;11.41;69.60;98998.41;5010211;28;20454;-76
2022/05/28 05:26:47;;;;;;;11.90;3.60;;;;;;;11.24;70.36;98996.63;5007877;28;20104;-77
2022/05/28 05:29:13;;;;;;;6.32;2.38;;;;;;;11.34;69.13;98987.91;5005218;28;20036;-77
2022/05/28 05:31:40;;;;;;;6.75;2.40;;;;;;;11.27;69.36;98988.09;5006946;28;20030;-77
2022/05/28 05:34:06;;;;;;;7.28;2.38;;;;;;;11.12;67.38;99000.47;5004783;28;20026;-76
2022/05/28 05:36:31;;;;;;;12.48;2.88;;;;;;;11.68;67.95;99007.31;4989751;28;20508;-77
2022/05/28 05:38:56;;;;;;;11.90;3.40;;;;;;;11.40;69.30;99005.63;4991816;28;20041;-77
2022/05/28 05:41:22;;;;;;;16.25;2.90;;;;;;;11.64;69.12;99012.31;5003752;28;20038;-77
2022/05/28 05:43:47;;;;;;;8.63;2.53;;;;;;;11.80;66.92;99011.44;5004790;28;20041;-77
2022/05/28 05:46:13;;;;;;;8.80;2.08;;;;;;;11.82;67.99;99019.22;5006585;28;20217;-77
2022/05/28 05:48:39;;;;;;;7.03;2.88;;;;;;;11.82;67.94;99020.03;5005848;28;20508;-77
2022/05/28 05:51:10;;;;;;;7.15;2.33;;;;;;;11.47;66.08;99024.13;5006383;28;20022;-76
2022/05/28 05:53:36;;;;;;;6.00;1.73;;;;;;;11.49;66.67;99016.69;5005360;28;20580;-77
2022/05/28 05:56:02;;;;;;;7.65;2.47;;;;;;;11.93;67.76;99034.31;5007052;28;20038;-77
2022/05/28 05:58:27;;;;;;;8.88;2.35;;;;;;;11.69;66.12;99012.41;5007410;28;20068;-77
2022/05/28 06:00:53;;;;;;;8.82;2.28;;;;;;;11.58;66.03;99013.31;5005174;28;20065;-77
2022/05/28 06:03:19;;;;;;;8.75;1.88;;;;;;;12.15;67.07;99008.31;5005512;28;20034;-76
2022/05/28 06:05:44;;;;;;;9.05;2.70;;;;;;;11.95;66.07;99022.31;5001531;28;20053;-76
2022/05/28 06:08:11;;;;;;;10.68;2.13;;;;;;;12.06;66.90;99017.84;5005813;28;20037;-77
2022/05/28 06:10:36;;;;;;;7.13;1.98;;;;;;;12.24;66.58;99022.84;5006183;28;20040;-77
2022/05/28 06:13:02;;;;;;;13.85;2.40;;;;;;;12.34;66.71;99006.84;4993087;28;20053;-76
2022/05/28 06:15:27;;;;;;;6.78;2.30;;;;;;;11.70;67.16;99016.72;4996290;28;20030;-77
2022/05/28 06:17:52;;;;;;;6.70;1.85;;;;;;;12.04;66.30;99018.09;5003461;28;20592;-77
2022/05/28 06:20:18;;;;;;;6.97;2.08;;;;;;;12.24;65.20;99020.16;5002611;28;20034;-77
2022/05/28 06:22:43;;;;;;;11.30;2.40;;;;;;;12.06;65.87;99023.19;5006726;28;20359;-77
2022/05/28 06:25:09;;;;;;;13.82;3.15;;;;;;;12.55;65.28;99018.53;5006631;28;20034;-77
2022/05/28 06:27:35;;;;;;;6.13;1.98;;;;;;;12.39;64.86;99006.91;5002570;28;20034;-77
2022/05/28 06:30:00;;;;;;;8.70;2.60;;;;;;;12.50;64.97;99015.81;5002949;28;20044;-76
2022/05/28 06:32:26;;;;;;;7.85;2.15;;;;;;;12.43;64.69;99016.03;5001853;28;20033;-77
2022/05/28 06:34:51;;;;;;;6.45;2.28;;;;;;;12.54;65.48;99019.59;4999602;28;20038;-77
2022/05/28 06:37:16;;;;;;;7.93;2.50;;;;;;;12.47;64.81;99016.34;5006966;28;20080;-77
2022/05/28 06:39:42;;;;;;;11.35;1.98;;;;;;;12.48;64.59;98996.53;5005988;28;20038;-77
2022/05/28 06:42:07;;;;;;;6.97;2.47;;;;;;;12.36;65.44;99031.50;5006792;28;20061;-77
2022/05/28 06:44:33;;;;;;;7.63;2.05;;;;;;;12.10;64.55;99028.88;5002943;28;20140;-77
2022/05/28 06:46:58;;;;;;;6.88;1.83;;;;;;;12.33;64.95;99020.50;5005121;28;20123;-78
2022/05/28 06:49:24;;;;;;;5.55;2.08;;;;;;;12.37;65.25;99029.63;5007694;28;20494;-77
2022/05/28 06:51:51;;;;;;;4.97;1.90;;;;;;;12.49;64.94;99028.38;5005425;28;20037;-77
2022/05/28 06:54:17;;;;;;;14.35;3.97;;;;;;;12.35;64.17;99023.72;5001708;28;20048;-77
2022/05/28 06:56:42;;;;;;;7.80;1.92;;;;;;;12.71;65.32;99022.94;4983588;28;20042;-77
2022/05/28 06:59:08;;;;;;;12.90;2.17;;;;;;;12.66;64.34;99020.22;4997609;28;20478;-77
2022/05/28 07:01:33;;;;;;;8.07;2.50;;;;;;;12.73;64.98;99031.53;4997905;28;20390;-76
2022/05/28 07:03:58;;;;;;;13.65;3.25;;;;;;;12.68;63.33;99018.09;5001262;28;20032;-76
2022/05/28 07:06:24;;;;;;;7.03;2.53;;;;;;;12.84;64.50;99019.81;5001910;28;20034;-77
2022/05/28 07:08:49;;;;;;;8.40;2.90;;;;;;;12.77;65.03;99025.41;5005717;28;20037;-77
2022/05/28 07:11:14;;;;;;;14.18;2.42;;;;;;;13.15;63.86;99026.97;4997034;28;20125;-77
2022/05/28 07:13:40;;;;;;;7.88;2.00;;;;;;;13.15;63.95;99032.34;4999040;28;20040;-76
2022/05/28 07:16:07;;;;;;;6.32;1.90;;;;;;;13.11;63.43;99028.56;5000688;28;20026;-76
2022/05/28 07:18:35;;;;;;;16.48;3.17;;;;;;;12.59;64.11;99025.81;5004028;28;20042;-77
2022/05/28 07:21:00;;;;;;;9.35;2.35;;;;;;;12.48;63.87;99032.13;5005865;28;20493;-76
2022/05/28 07:23:27;;;;;;;8.82;2.30;;;;;;;12.39;63.81;99040.88;5004590;28;20117;-77
2022/05/28 07:26:07;;;;;;;7.80;2.20;;;;;;;12.41;63.71;99025.38;5004829;28;20560;-78
2022/05/28 07:28:34;;;;;;;7.63;2.65;;;;;;;12.40;63.92;99032.63;5002350;28;20558;-77
2022/05/28 07:31:20;;;;;;;6.15;1.88;;;;;;;12.21;63.26;99017.19;4998811;28;20026;-77
2022/05/28 07:33:46;;;;;;;4.50;1.98;;;;;;;12.55;63.05;99018.53;4991565;28;20033;-77
2022/05/28 07:36:17;;;;;;;10.95;1.90;;;;;;;12.47;63.31;99021.69;5006711;28;20696;-77
2022/05/28 07:38:43;;;;;;;10.98;2.83;;;;;;;12.51;63.60;99015.56;5026620;28;20038;-77
2022/05/28 07:41:14;;;;;;;18.45;2.70;;;;;;;12.54;62.44;99027.63;5008633;28;20072;-77
2022/05/28 07:43:41;;;;;;;11.70;2.78;;;;;;;12.40;62.16;99021.09;5000416;28;20041;-78
2022/05/28 07:46:28;;;;;;;10.38;2.05;;;;;;;12.34;61.93;99019.44;5003090;28;20025;-77
2022/05/28 07:48:55;;;;;;;8.10;1.95;;;;;;;12.31;62.25;99004.72;4993772;28;20072;-76
2022/05/28 07:51:21;;;;;;;41.08;7.82;;;;;;;12.36;62.10;99018.09;4993170;28;20038;-76
2022/05/28 07:53:46;;;;;;;17.42;5.05;;;;;;;12.19;62.48;99013.97;5005613;28;20045;-75
2022/05/28 07:56:12;;;;;;;13.48;2.53;;;;;;;12.36;61.82;99030.72;5005304;28;20117;-75
2022/05/28 07:58:37;;;;;;;14.50;2.88;;;;;;;12.43;62.00;99009.88;5006435;28;20049;-76
2022/05/28 08:01:04;;;;;;;13.38;3.03;;;;;;;12.53;61.86;99012.63;5002465;28;20651;-76
2022/05/28 08:03:30;;;;;;;9.68;2.42;;;;;;;12.57;61.27;99013.72;5004816;28;21675;-75
2022/05/28 08:05:56;;;;;;;11.38;2.60;;;;;;;12.59;61.72;99009.72;4990949;28;20025;-76
2022/05/28 08:08:25;;;;;;;14.75;2.78;;;;;;;12.40;61.38;99027.25;5005025;28;20442;-76
2022/05/28 08:10:51;;;;;;;7.88;2.17;;;;;;;12.58;61.83;99026.84;5006955;28;20026;-75
2022/05/28 08:13:19;;;;;;;13.07;2.25;;;;;;;12.80;61.33;99016.81;5005595;28;20022;-75
2022/05/28 08:15:46;;;;;;;11.10;3.55;;;;;;;13.00;60.50;99021.50;5005214;28;20371;-75
2022/05/28 08:18:15;;;;;;;14.82;2.67;;;;;;;13.12;61.72;99019.47;4998821;28;20041;-75
2022/05/28 08:23:25;;;;;;;5.53;1.83;;;;;;;13.12;61.68;99024.00;5008168;28;20060;-75
2022/05/28 08:25:50;;;;;;;9.75;1.90;;;;;;;13.03;60.81;99022.84;5003279;28;20478;-75
2022/05/28 08:28:17;;;;;;;5.95;2.42;;;;;;;13.24;61.41;99027.28;5007297;28;20092;-75
2022/05/28 08:30:43;;;;;;;8.15;1.85;;;;;;;13.28;60.83;99010.41;5017385;28;20057;-75
2022/05/28 08:33:11;;;;;;;2.90;1.35;;;;;;;13.30;61.25;99024.34;5004702;28;20057;-75
2022/05/28 08:35:38;;;;;;;8.65;2.05;;;;;;;13.19;60.88;99008.50;5005101;28;20036;-75
2022/05/28 08:38:13;;;;;;;2.83;1.38;;;;;;;13.33;60.50;99023.03;5007224;28;20117;-75
2022/05/28 08:40:49;;;;;;;5.82;1.85;;;;;;;13.23;60.44;99023.81;5000591;28;20042;-76
2022/05/28 08:43:17;;;;;;;3.80;1.88;;;;;;;13.37;61.03;99018.75;5005031;28;20038;-75
2022/05/28 08:45:45;;;;;;;5.18;2.17;;;;;;;13.23;61.44;99020.31;5005002;28;20026;-75
2022/05/28 08:48:15;;;;;;;6.30;2.35;;;;;;;13.38;60.69;99028.44;4990701;28;20409;-75
2022/05/28 08:50:51;;;;;;;4.90;1.55;;;;;;;13.23;62.24;99017.66;5003645;28;20539;-75
2022/05/28 08:53:22;;;;;;;8.63;1.98;;;;;;;13.35;62.59;99024.38;5005493;28;20033;-75
2022/05/28 08:55:50;;;;;;;6.18;2.65;;;;;;;13.26;64.87;99019.78;5006229;28;20036;-75
2022/05/28 08:58:20;;;;;;;9.98;2.13;;;;;;;13.31;64.17;99017.13;5004292;28;20060;-76
2022/05/28 09:00:57;;;;;;;10.80;2.08;;;;;;;13.39;64.17;99022.78;5006804;28;20034;-76
2022/05/28 09:03:44;;;;;;;4.82;1.65;;;;;;;13.59;63.16;99019.38;4992860;28;20034;-76
2022/05/28 09:06:24;;;;;;;19.30;1.73;;;;;;;13.56;63.36;99008.38;5006317;28;20053;-75
2022/05/28 09:08:51;;;;;;;7.22;1.75;;;;;;;13.57;63.01;99021.53;4993460;28;20040;-76
2022/05/28 09:11:29;;;;;;;9.15;1.80;;;;;;;13.39;62.42;99021.97;4986406;28;20053;-75
2022/05/28 09:13:55;;;;;;;5.30;1.67;;;;;;;13.77;61.22;99029.63;4994668;28;20034;-76
2022/05/28 09:16:30;;;;;;;9.65;1.27;;;;;;;13.52;60.81;99024.19;5000124;28;20030;-75
2022/05/28 09:19:01;;;;;;;5.45;1.27;;;;;;;13.19;62.10;99025.38;5000544;28;20044;-75
2022/05/28 09:21:27;;;;;;;8.20;2.85;;;;;;;13.11;61.76;99028.56;5007552;28;20034;-75
2022/05/28 09:24:03;;;;;;;3.45;1.25;;;;;;;13.32;62.35;99041.00;4990339;28;20543;-75
2022/05/28 09:26:52;;;;;;;3.38;1.45;;;;;;;13.34;62.45;99014.75;5002278;28;20041;-76
2022/05/28 09:29:45;;;;;;;5.60;1.40;;;;;;;13.74;62.30;99045.47;4997296;28;20064;-75
2022/05/28 09:32:20;;;;;;;6.40;1.70;;;;;;;13.66;62.17;99040.59;4985783;28;20036;-75
2022/05/28 09:35:12;;;;;;;3.75;1.35;;;;;;;13.75;62.73;99036.34;5002427;28;20038;-75
2022/05/28 09:38:02;;;;;;;6.05;1.55;;;;;;;13.78;63.53;99038.50;5005929;28;20088;-76
2022/05/28 09:40:39;;;;;;;5.70;1.65;;;;;;;13.67;62.50;99026.94;5005266;28;20034;-76
2022/05/28 09:43:13;;;;;;;8.68;3.53;;;;;;;13.54;63.06;99041.63;5005771;28;20025;-76
2022/05/28 09:46:05;;;;;;;2.88;1.17;;;;;;;13.56;63.11;99022.59;5007022;28;20659;-76
2022/05/28 09:48:32;;;;;;;6.72;1.52;;;;;;;13.98;61.00;99015.19;5004351;28;20083;-76
2022/05/28 09:50:57;;;;;;;73.57;9.85;;;;;;;13.67;60.90;99016.22;4987624;28;20037;-76
2022/05/28 09:56:23;;;;;;;12.90;2.63;;;;;;;13.50;60.34;99003.00;5000916;28;20037;-76
2022/05/28 09:58:49;;;;;;;14.02;2.25;;;;;;;13.84;60.01;99002.56;5022928;28;20573;-76
2022/05/28 10:01:26;;;;;;;5.40;1.52;;;;;;;13.95;59.25;98996.94;5004209;28;20480;-76
2022/05/28 10:06:53;;;;;;;8.85;1.73;;;;;;;14.03;58.64;99011.69;5001938;28;20072;-76
2022/05/28 10:09:21;;;;;;;9.75;2.20;;;;;;;14.06;58.49;99003.13;5003710;28;20072;-76
2022/05/28 10:11:51;;;;;;;18.55;2.45;;;;;;;14.16;59.30;99003.94;5001871;28;20061;-77
2022/05/28 10:14:17;;;;;;;3.55;1.70;;;;;;;14.38;58.52;98990.28;4997509;28;20120;-77
2022/05/28 10:16:49;;;;;;;4.50;1.80;;;;;;;14.50;57.84;99001.56;4996055;28;20038;-76
2022/05/28 10:19:41;;;;;;;10.18;3.17;;;;;;;14.48;58.81;99009.06;5006643;28;20432;-77
2022/05/28 10:22:17;;;;;;;17.45;3.80;;;;;;;14.51;57.80;99010.41;5015501;28;20018;-76
2022/05/28 10:24:55;;;;;;;17.88;3.78;;;;;;;14.78;57.42;98992.13;5007047;28;20087;-76
2022/05/28 10:27:48;;;;;;;6.75;1.85;;;;;;;14.92;57.78;98991.28;5002428;28;20423;-76
2022/05/28 10:30:36;;;;;;;3.55;2.28;;;;;;;15.08;57.21;99000.09;5004864;28;20030;-77
2022/05/28 10:33:08;;;;;;;5.00;1.80;;;;;;;15.33;56.71;99002.69;5019169;28;20033;-77
2022/05/28 10:35:34;;;;;;;5.45;1.88;;;;;;;15.13;56.26;98986.66;5007594;28;20034;-77
2022/05/28 10:38:14;;;;;;;5.53;1.73;;;;;;;14.99;56.54;98993.66;5001661;28;20036;-77
2022/05/28 10:40:52;;;;;;;9.25;1.88;;;;;;;14.87;56.11;98999.34;5015659;28;20486;-77
2022/05/28 10:43:26;;;;;;;6.78;2.30;;;;;;;14.59;56.11;99001.81;5002386;28;20061;-77
2022/05/28 10:46:01;;;;;;;5.45;1.70;;;;;;;14.50;54.22;98998.88;5004517;28;20469;-76
2022/05/28 10:48:44;;;;;;;9.43;2.15;;;;;;;14.68;54.31;98990.25;5002206;28;20429;-77
2022/05/28 10:51:30;;;;;;;8.73;1.88;;;;;;;14.98;53.74;98984.78;4992478;28;20085;-76
2022/05/28 10:54:24;;;;;;;6.18;1.95;;;;;;;15.47;53.11;98982.22;4997563;28;20034;-77
2022/05/28 10:56:52;;;;;;;6.97;2.55;;;;;;;15.76;53.23;98979.66;5004587;28;20057;-76
2022/05/28 10:59:44;;;;;;;5.93;2.85;;;;;;;15.63;52.29;98974.88;5004544;28;20397;-77
2022/05/28 11:02:31;;;;;;;5.75;1.75;;;;;;;15.48;52.76;98989.22;4996223;28;20084;-76
2022/05/28 11:05:01;;;;;;;5.90;1.83;;;;;;;15.57;53.30;98990.22;5003935;28;20033;-77
2022/05/28 11:07:51;;;;;;;10.90;2.10;;;;;;;15.64;52.89;98995.31;5005683;28;20027;-76
2022/05/28 11:10:41;;;;;;;6.82;1.45;;;;;;;15.52;52.98;98986.78;5007881;28;20030;-77
2022/05/28 11:13:29;;;;;;;6.60;1.92;;;;;;;15.54;53.16;98995.38;5008672;28;20030;-77
2022/05/28 11:16:14;;;;;;;5.07;2.50;;;;;;;15.52;52.38;98981.41;5006686;28;20034;-77
2022/05/28 11:18:58;;;;;;;5.03;1.77;;;;;;;15.27;53.26;99000.28;5006251;28;20095;-76
2022/05/28 11:21:46;;;;;;;5.80;2.47;;;;;;;14.94;54.71;98999.06;5007868;28;20113;-76
2022/05/28 11:24:55;;;;;;;11.10;4.05;;;;;;;14.80;55.58;98998.03;5015640;28;20030;-76
2022/05/28 11:27:44;;;;;;;10.70;1.60;;;;;;;14.88;55.76;99003.66;5009827;28;20025;-76
2022/05/28 11:30:29;;;;;;;7.13;2.25;;;;;;;15.15;55.82;99005.19;5006836;28;20493;-76
2022/05/28 11:33:00;;;;;;;7.15;2.03;;;;;;;15.38;55.13;98993.78;5010113;28;20381;-76
2022/05/28 11:35:38;;;;;;;9.75;2.15;;;;;;;15.44;55.70;99011.56;5010107;28;20030;-76
2022/05/28 11:38:16;;;;;;;9.32;1.80;;;;;;;15.65;55.42;99008.50;5010368;28;20061;-76
2022/05/28 11:41:04;;;;;;;7.07;1.73;;;;;;;15.47;55.66;99003.75;5012597;28;20406;-76
2022/05/28 11:44:03;;;;;;;6.75;1.88;;;;;;;15.70;56.11;98991.53;5011937;28;20033;-76
2022/05/28 11:46:46;;;;;;;6.00;2.17;;;;;;;15.99;54.63;98995.09;5012607;28;20018;-76
2022/05/28 11:52:40;;;;;;;6.72;1.58;;;;;;;16.27;54.31;98972.03;5006523;28;20041;-76
2022/05/28 11:55:26;;;;;;;;;;;;;;;16.18;53.75;98977.22;5021197;28;20121;-76
2022/05/28 11:58:12;;;;;;;4.55;1.88;;;;;;;16.24;53.44;98976.06;5010562;28;19917;-76
2022/05/28 12:00:40;;;;;;;12.80;3.10;;;;;;;16.36;52.99;98964.91;5010969;28;20071;-76